aviador You're here:

PASM Decoded Metar

SAINT MARYS in AK, USA
Report Time2018-07-19 20:02:00
UTC Time2018-07-19 21:06:31
Flight Rules mvfr MVFR
Wind200° at 06 kt
W.Decomp.*RWY 17: 5.7 kt HW 1.9 kt RCW
RWY 24: 3.7 kt HW 4.7 kt LCW
W.Rank200° ranks 26
Current wind is below 200° avg. (9.0)
Visibility9999 m
Phenomena:N/A
Clouds:Overcast 010 Hf
Expected CloudBase > 1,200 ft AGL from Temp-Dew spread
Ceiling1,000 ft
Temp11°C (ISA -3)
Dew Point08°C (82% RH)
AAT8.4°C
QNH1025 hPa
Density Alt-364 ft
Elevation302 ft
Report Wrong Elevation
Raw Report
PASM 192002Z AUTO 20006KT 10SM OVC010 11/08 A3026 RMK AO2 SLP267
T01060083=

Extra information for PASM:More info

Metar Taf Metar & Taf Last 4 Metars F.Rules Stats Wind Profile Meteogram Temp Stats Airport Information Weather charts Add Link Nearby VenuesMetar ALERT Operation Metar Decoded Social comments

AIRNAV info for PASM